sensor_id;sensor_type;location;lat;lon;timestamp;temperature;humidity
8709;DHT22;4391;48.678;9.280;2023-08-06T00:00:55;14.80;99.90
8709;DHT22;4391;48.678;9.280;2023-08-06T00:03:21;14.70;99.90
8709;DHT22;4391;48.678;9.280;2023-08-06T00:05:48;14.70;99.90
8709;DHT22;4391;48.678;9.280;2023-08-06T00:08:15;14.60;99.90
8709;DHT22;4391;48.678;9.280;2023-08-06T00:10:43;14.60;99.90
8709;DHT22;4391;48.678;9.280;2023-08-06T00:13:10;14.50;99.90
8709;DHT22;4391;48.678;9.280;2023-08-06T00:15:37;14.50;99.90
8709;DHT22;4391;48.678;9.280;2023-08-06T00:18:04;14.50;99.90
8709;DHT22;4391;48.678;9.280;2023-08-06T00:20:30;14.50;99.90
8709;DHT22;4391;48.678;9.280;2023-08-06T00:22:57;14.40;99.90
8709;DHT22;4391;48.678;9.280;2023-08-06T00:25:24;14.40;99.90
8709;DHT22;4391;48.678;9.280;2023-08-06T00:27:52;14.40;99.90
8709;DHT22;4391;48.678;9.280;2023-08-06T00:30:19;14.40;99.90
8709;DHT22;4391;48.678;9.280;2023-08-06T00:32:46;14.30;99.90
8709;DHT22;4391;48.678;9.280;2023-08-06T00:35:13;14.30;99.90
8709;DHT22;4391;48.678;9.280;2023-08-06T00:37:40;14.30;99.90
8709;DHT22;4391;48.678;9.280;2023-08-06T00:40:07;14.20;99.90
8709;DHT22;4391;48.678;9.280;2023-08-06T00:42:34;14.10;99.90
8709;DHT22;4391;48.678;9.280;2023-08-06T00:45:03;14.00;99.90
8709;DHT22;4391;48.678;9.280;2023-08-06T00:47:31;13.90;99.90
8709;DHT22;4391;48.678;9.280;2023-08-06T00:49:57;13.90;99.90
8709;DHT22;4391;48.678;9.280;2023-08-06T00:52:24;13.80;99.90
8709;DHT22;4391;48.678;9.280;2023-08-06T00:54:52;13.80;99.90
8709;DHT22;4391;48.678;9.280;2023-08-06T00:57:20;13.80;99.90
8709;DHT22;4391;48.678;9.280;2023-08-06T00:59:48;13.80;99.90
8709;DHT22;4391;48.678;9.280;2023-08-06T01:02:17;13.80;99.90
8709;DHT22;4391;48.678;9.280;2023-08-06T01:04:43;13.80;99.90
8709;DHT22;4391;48.678;9.280;2023-08-06T01:07:21;13.80;99.90
8709;DHT22;4391;48.678;9.280;2023-08-06T01:10:00;13.80;99.90
8709;DHT22;4391;48.678;9.280;2023-08-06T01:12:41;13.90;99.90
8709;DHT22;4391;48.678;9.280;2023-08-06T01:15:15;13.80;99.90
8709;DHT22;4391;48.678;9.280;2023-08-06T01:17:45;13.80;99.90
8709;DHT22;4391;48.678;9.280;2023-08-06T01:20:12;13.80;99.90
8709;DHT22;4391;48.678;9.280;2023-08-06T01:22:40;13.80;99.90
8709;DHT22;4391;48.678;9.280;2023-08-06T01:25:07;13.80;99.90
8709;DHT22;4391;48.678;9.280;2023-08-06T01:27:41;13.80;99.90
8709;DHT22;4391;48.678;9.280;2023-08-06T01:30:12;13.80;99.90
8709;DHT22;4391;48.678;9.280;2023-08-06T01:32:43;13.80;99.90
8709;DHT22;4391;48.678;9.280;2023-08-06T01:35:12;13.90;99.90
8709;DHT22;4391;48.678;9.280;2023-08-06T01:37:42;13.90;99.90
8709;DHT22;4391;48.678;9.280;2023-08-06T01:40:10;13.90;99.90
8709;DHT22;4391;48.678;9.280;2023-08-06T01:42:37;13.90;99.90
8709;DHT22;4391;48.678;9.280;2023-08-06T01:45:05;13.90;99.90
8709;DHT22;4391;48.678;9.280;2023-08-06T01:47:32;13.90;99.90
8709;DHT22;4391;48.678;9.280;2023-08-06T01:49:59;13.90;99.90
8709;DHT22;4391;48.678;9.280;2023-08-06T01:52:26;13.90;99.90
8709;DHT22;4391;48.678;9.280;2023-08-06T01:54:54;13.80;99.90
8709;DHT22;4391;48.678;9.280;2023-08-06T01:57:21;13.80;99.90
8709;DHT22;4391;48.678;9.280;2023-08-06T01:59:48;13.70;99.90
8709;DHT22;4391;48.678;9.280;2023-08-06T02:02:15;13.70;99.90
8709;DHT22;4391;48.678;9.280;2023-08-06T02:04:41;13.70;99.90
8709;DHT22;4391;48.678;9.280;2023-08-06T02:07:08;13.60;99.90
8709;DHT22;4391;48.678;9.280;2023-08-06T02:09:35;13.60;99.90
8709;DHT22;4391;48.678;9.280;2023-08-06T02:12:04;13.60;99.90
8709;DHT22;4391;48.678;9.280;2023-08-06T02:14:31;13.50;99.90
8709;DHT22;4391;48.678;9.280;2023-08-06T02:16:58;13.50;99.90
8709;DHT22;4391;48.678;9.280;2023-08-06T02:19:24;13.40;99.90
8709;DHT22;4391;48.678;9.280;2023-08-06T02:21:51;13.40;99.90
8709;DHT22;4391;48.678;9.280;2023-08-06T02:24:18;13.40;99.90
8709;DHT22;4391;48.678;9.280;2023-08-06T02:26:45;13.30;99.90
8709;DHT22;4391;48.678;9.280;2023-08-06T02:29:15;13.20;99.90
8709;DHT22;4391;48.678;9.280;2023-08-06T02:31:42;13.10;99.90
8709;DHT22;4391;48.678;9.280;2023-08-06T02:34:09;13.00;99.90
8709;DHT22;4391;48.678;9.280;2023-08-06T02:36:35;12.80;99.90
8709;DHT22;4391;48.678;9.280;2023-08-06T02:39:02;12.70;99.90
8709;DHT22;4391;48.678;9.280;2023-08-06T02:41:29;12.60;99.90
8709;DHT22;4391;48.678;9.280;2023-08-06T02:43:56;12.60;99.90
8709;DHT22;4391;48.678;9.280;2023-08-06T02:46:24;12.60;99.90
8709;DHT22;4391;48.678;9.280;2023-08-06T02:48:51;12.60;99.90
8709;DHT22;4391;48.678;9.280;2023-08-06T02:51:18;12.50;99.90
8709;DHT22;4391;48.678;9.280;2023-08-06T02:53:45;12.60;99.90
8709;DHT22;4391;48.678;9.280;2023-08-06T02:56:11;12.60;99.90
8709;DHT22;4391;48.678;9.280;2023-08-06T02:58:38;12.50;99.90
8709;DHT22;4391;48.678;9.280;2023-08-06T03:01:06;12.60;99.90
8709;DHT22;4391;48.678;9.280;2023-08-06T03:03:34;12.60;99.90
8709;DHT22;4391;48.678;9.280;2023-08-06T03:06:01;12.60;99.90
8709;DHT22;4391;48.678;9.280;2023-08-06T03:08:28;12.60;99.90
8709;DHT22;4391;48.678;9.280;2023-08-06T03:10:55;12.70;99.90
8709;DHT22;4391;48.678;9.280;2023-08-06T03:13:22;12.70;99.90
8709;DHT22;4391;48.678;9.280;2023-08-06T03:15:52;12.80;99.90
8709;DHT22;4391;48.678;9.280;2023-08-06T03:18:20;12.80;99.90
8709;DHT22;4391;48.678;9.280;2023-08-06T03:20:49;12.90;99.90
8709;DHT22;4391;48.678;9.280;2023-08-06T03:23:16;13.00;99.90
8709;DHT22;4391;48.678;9.280;2023-08-06T03:25:43;13.10;99.90
8709;DHT22;4391;48.678;9.280;2023-08-06T03:28:10;13.20;99.90
8709;DHT22;4391;48.678;9.280;2023-08-06T03:30:37;13.20;99.90
8709;DHT22;4391;48.678;9.280;2023-08-06T03:33:03;13.30;99.90
8709;DHT22;4391;48.678;9.280;2023-08-06T03:35:30;13.30;99.90
8709;DHT22;4391;48.678;9.280;2023-08-06T03:37:58;13.40;99.90
8709;DHT22;4391;48.678;9.280;2023-08-06T03:40:25;13.40;99.90
8709;DHT22;4391;48.678;9.280;2023-08-06T03:42:52;13.40;99.00
8709;DHT22;4391;48.678;9.280;2023-08-06T03:45:19;13.40;98.30
8709;DHT22;4391;48.678;9.280;2023-08-06T03:47:45;13.50;99.10
8709;DHT22;4391;48.678;9.280;2023-08-06T03:50:12;13.50;97.40
8709;DHT22;4391;48.678;9.280;2023-08-06T03:52:39;13.50;98.40
8709;DHT22;4391;48.678;9.280;2023-08-06T03:55:07;13.50;97.40
8709;DHT22;4391;48.678;9.280;2023-08-06T03:57:34;13.50;94.50
8709;DHT22;4391;48.678;9.280;2023-08-06T04:00:01;13.50;96.60
8709;DHT22;4391;48.678;9.280;2023-08-06T04:02:28;13.50;96.10
8709;DHT22;4391;48.678;9.280;2023-08-06T04:04:55;13.50;93.50
8709;DHT22;4391;48.678;9.280;2023-08-06T04:07:22;13.50;94.30
8709;DHT22;4391;48.678;9.280;2023-08-06T04:09:53;13.60;96.40
8709;DHT22;4391;48.678;9.280;2023-08-06T04:12:21;13.60;98.60
8709;DHT22;4391;48.678;9.280;2023-08-06T04:14:49;13.50;99.90
8709;DHT22;4391;48.678;9.280;2023-08-06T04:17:16;13.50;99.90
8709;DHT22;4391;48.678;9.280;2023-08-06T04:19:46;13.50;99.90
8709;DHT22;4391;48.678;9.280;2023-08-06T04:22:12;13.50;99.90
8709;DHT22;4391;48.678;9.280;2023-08-06T04:24:39;13.50;99.90
8709;DHT22;4391;48.678;9.280;2023-08-06T04:27:06;13.40;99.90
8709;DHT22;4391;48.678;9.280;2023-08-06T04:29:34;13.40;99.90
8709;DHT22;4391;48.678;9.280;2023-08-06T04:32:01;13.40;99.90
8709;DHT22;4391;48.678;9.280;2023-08-06T04:34:28;13.40;99.90
8709;DHT22;4391;48.678;9.280;2023-08-06T04:36:55;13.40;99.90
8709;DHT22;4391;48.678;9.280;2023-08-06T04:39:22;13.40;99.90
8709;DHT22;4391;48.678;9.280;2023-08-06T04:41:49;13.40;99.90
8709;DHT22;4391;48.678;9.280;2023-08-06T04:44:15;13.40;99.90
8709;DHT22;4391;48.678;9.280;2023-08-06T04:46:44;13.40;99.90
8709;DHT22;4391;48.678;9.280;2023-08-06T04:49:10;13.40;99.90
8709;DHT22;4391;48.678;9.280;2023-08-06T04:51:37;13.40;99.90
8709;DHT22;4391;48.678;9.280;2023-08-06T04:54:04;13.30;99.90
8709;DHT22;4391;48.678;9.280;2023-08-06T04:56:31;13.30;99.90
8709;DHT22;4391;48.678;9.280;2023-08-06T04:58:58;13.30;99.90
8709;DHT22;4391;48.678;9.280;2023-08-06T05:01:25;13.30;99.90
8709;DHT22;4391;48.678;9.280;2023-08-06T05:03:53;13.20;99.90
8709;DHT22;4391;48.678;9.280;2023-08-06T05:06:20;13.20;99.90
8709;DHT22;4391;48.678;9.280;2023-08-06T05:08:47;13.20;99.90
8709;DHT22;4391;48.678;9.280;2023-08-06T05:11:13;13.20;99.90
8709;DHT22;4391;48.678;9.280;2023-08-06T05:13:40;13.20;99.90
8709;DHT22;4391;48.678;9.280;2023-08-06T05:16:07;13.20;99.90
8709;DHT22;4391;48.678;9.280;2023-08-06T05:18:34;13.20;99.90
8709;DHT22;4391;48.678;9.280;2023-08-06T05:21:04;13.10;99.90
8709;DHT22;4391;48.678;9.280;2023-08-06T05:23:31;13.10;99.90
8709;DHT22;4391;48.678;9.280;2023-08-06T05:25:58;13.10;99.90
8709;DHT22;4391;48.678;9.280;2023-08-06T05:28:24;13.10;99.90
8709;DHT22;4391;48.678;9.280;2023-08-06T05:30:51;13.10;99.90
8709;DHT22;4391;48.678;9.280;2023-08-06T05:33:18;13.10;99.90
8709;DHT22;4391;48.678;9.280;2023-08-06T05:35:45;13.20;99.90
8709;DHT22;4391;48.678;9.280;2023-08-06T05:38:13;13.30;99.90
8709;DHT22;4391;48.678;9.280;2023-08-06T05:40:40;13.30;99.90
8709;DHT22;4391;48.678;9.280;2023-08-06T05:43:06;13.50;99.90
8709;DHT22;4391;48.678;9.280;2023-08-06T05:45:33;13.60;99.90
8709;DHT22;4391;48.678;9.280;2023-08-06T05:48:00;13.90;99.90
8709;DHT22;4391;48.678;9.280;2023-08-06T05:50:27;14.10;99.90
8709;DHT22;4391;48.678;9.280;2023-08-06T05:52:53;14.30;90.00
8709;DHT22;4391;48.678;9.280;2023-08-06T05:55:22;14.50;68.00
8709;DHT22;4391;48.678;9.280;2023-08-06T05:57:48;14.50;56.40
8709;DHT22;4391;48.678;9.280;2023-08-06T06:00:17;14.50;33.80
8709;DHT22;4391;48.678;9.280;2023-08-06T06:02:44;14.50;28.20
8709;DHT22;4391;48.678;9.280;2023-08-06T06:05:12;14.50;15.00
8709;DHT22;4391;48.678;9.280;2023-08-06T06:07:38;14.50;29.80
8709;DHT22;4391;48.678;9.280;2023-08-06T06:10:06;14.50;29.80
8709;DHT22;4391;48.678;9.280;2023-08-06T06:12:35;14.50;28.30
8709;DHT22;4391;48.678;9.280;2023-08-06T06:15:03;14.50;19.80
8709;DHT22;4391;48.678;9.280;2023-08-06T06:17:30;14.50;17.80
8709;DHT22;4391;48.678;9.280;2023-08-06T06:19:58;14.50;25.70
8709;DHT22;4391;48.678;9.280;2023-08-06T06:22:25;14.60;3.60
8709;DHT22;4391;48.678;9.280;2023-08-06T06:24:52;14.60;1.00
8709;DHT22;4391;48.678;9.280;2023-08-06T06:27:19;14.60;1.00
8709;DHT22;4391;48.678;9.280;2023-08-06T06:29:47;14.60;1.00
8709;DHT22;4391;48.678;9.280;2023-08-06T06:32:14;14.60;1.00
8709;DHT22;4391;48.678;9.280;2023-08-06T06:34:41;14.50;12.00
8709;DHT22;4391;48.678;9.280;2023-08-06T06:37:08;14.40;22.10
8709;DHT22;4391;48.678;9.280;2023-08-06T06:39:35;14.50;29.50
8709;DHT22;4391;48.678;9.280;2023-08-06T06:42:03;14.50;12.50
8709;DHT22;4391;48.678;9.280;2023-08-06T06:44:30;14.60;24.80
8709;DHT22;4391;48.678;9.280;2023-08-06T06:46:58;14.60;5.40
8709;DHT22;4391;48.678;9.280;2023-08-06T06:49:25;14.70;1.80
8709;DHT22;4391;48.678;9.280;2023-08-06T06:51:52;14.90;1.00
8709;DHT22;4391;48.678;9.280;2023-08-06T06:54:19;14.90;1.00
8709;DHT22;4391;48.678;9.280;2023-08-06T06:56:50;14.90;1.00
8709;DHT22;4391;48.678;9.280;2023-08-06T06:59:18;14.90;1.00
8709;DHT22;4391;48.678;9.280;2023-08-06T07:01:47;14.90;1.00
8709;DHT22;4391;48.678;9.280;2023-08-06T07:04:18;14.90;4.70
8709;DHT22;4391;48.678;9.280;2023-08-06T07:06:46;15.10;1.00
8709;DHT22;4391;48.678;9.280;2023-08-06T07:09:19;15.00;1.00
8709;DHT22;4391;48.678;9.280;2023-08-06T07:11:47;15.00;1.00
8709;DHT22;4391;48.678;9.280;2023-08-06T07:14:19;15.00;1.00
8709;DHT22;4391;48.678;9.280;2023-08-06T07:16:47;14.80;1.00
8709;DHT22;4391;48.678;9.280;2023-08-06T07:19:16;14.80;33.40
8709;DHT22;4391;48.678;9.280;2023-08-06T07:21:46;14.70;37.90
8709;DHT22;4391;48.678;9.280;2023-08-06T07:24:14;14.60;92.90
8709;DHT22;4391;48.678;9.280;2023-08-06T07:26:41;14.50;91.40
8709;DHT22;4391;48.678;9.280;2023-08-06T07:29:08;14.50;84.80
8709;DHT22;4391;48.678;9.280;2023-08-06T07:31:35;14.30;98.30
8709;DHT22;4391;48.678;9.280;2023-08-06T07:34:02;14.30;99.90
8709;DHT22;4391;48.678;9.280;2023-08-06T07:36:31;14.20;99.90
8709;DHT22;4391;48.678;9.280;2023-08-06T07:39:02;14.00;99.90
8709;DHT22;4391;48.678;9.280;2023-08-06T07:41:31;14.10;99.90
8709;DHT22;4391;48.678;9.280;2023-08-06T07:43:58;14.10;99.90
8709;DHT22;4391;48.678;9.280;2023-08-06T07:46:26;14.10;99.90
8709;DHT22;4391;48.678;9.280;2023-08-06T07:48:53;14.10;99.90
8709;DHT22;4391;48.678;9.280;2023-08-06T07:51:19;14.10;99.90
8709;DHT22;4391;48.678;9.280;2023-08-06T07:53:48;14.30;99.90
8709;DHT22;4391;48.678;9.280;2023-08-06T07:56:15;14.40;95.50
8709;DHT22;4391;48.678;9.280;2023-08-06T07:58:42;14.50;66.10
8709;DHT22;4391;48.678;9.280;2023-08-06T08:01:09;14.70;72.20
8709;DHT22;4391;48.678;9.280;2023-08-06T08:03:39;14.80;49.90
8709;DHT22;4391;48.678;9.280;2023-08-06T08:06:06;15.00;24.70
8709;DHT22;4391;48.678;9.280;2023-08-06T08:08:33;15.20;18.00
8709;DHT22;4391;48.678;9.280;2023-08-06T08:11:05;15.20;4.70
8709;DHT22;4391;48.678;9.280;2023-08-06T08:13:32;15.30;1.00
8709;DHT22;4391;48.678;9.280;2023-08-06T08:16:00;15.30;1.00
8709;DHT22;4391;48.678;9.280;2023-08-06T08:18:27;15.50;1.00
8709;DHT22;4391;48.678;9.280;2023-08-06T08:20:55;15.70;1.00
8709;DHT22;4391;48.678;9.280;2023-08-06T08:23:22;15.90;1.00
8709;DHT22;4391;48.678;9.280;2023-08-06T08:25:49;16.10;1.00
8709;DHT22;4391;48.678;9.280;2023-08-06T08:28:18;16.30;99.90
8709;DHT22;4391;48.678;9.280;2023-08-06T08:30:45;16.40;99.90
8709;DHT22;4391;48.678;9.280;2023-08-06T08:33:12;16.30;32.30
8709;DHT22;4391;48.678;9.280;2023-08-06T08:35:40;16.10;1.00
8709;DHT22;4391;48.678;9.280;2023-08-06T08:38:07;15.80;1.00
8709;DHT22;4391;48.678;9.280;2023-08-06T08:40:43;15.70;1.00
8709;DHT22;4391;48.678;9.280;2023-08-06T08:43:27;15.40;1.00
8709;DHT22;4391;48.678;9.280;2023-08-06T08:45:54;15.20;4.30
8709;DHT22;4391;48.678;9.280;2023-08-06T08:48:24;15.10;50.30
8709;DHT22;4391;48.678;9.280;2023-08-06T08:50:52;15.00;59.40
8709;DHT22;4391;48.678;9.280;2023-08-06T08:53:21;14.90;48.80
8709;DHT22;4391;48.678;9.280;2023-08-06T08:55:49;14.80;71.00
8709;DHT22;4391;48.678;9.280;2023-08-06T08:58:16;14.70;67.50
8709;DHT22;4391;48.678;9.280;2023-08-06T09:00:46;14.70;39.40
8709;DHT22;4391;48.678;9.280;2023-08-06T09:03:13;14.80;48.10
8709;DHT22;4391;48.678;9.280;2023-08-06T09:05:44;15.00;52.30
8709;DHT22;4391;48.678;9.280;2023-08-06T09:08:12;15.00;21.90
8709;DHT22;4391;48.678;9.280;2023-08-06T09:10:43;15.00;53.80
8709;DHT22;4391;48.678;9.280;2023-08-06T09:13:10;15.00;18.50
8709;DHT22;4391;48.678;9.280;2023-08-06T09:15:38;15.20;1.00
8709;DHT22;4391;48.678;9.280;2023-08-06T09:18:11;15.40;24.50
8709;DHT22;4391;48.678;9.280;2023-08-06T09:20:38;15.80;1.00
8709;DHT22;4391;48.678;9.280;2023-08-06T09:23:07;16.10;1.00
8709;DHT22;4391;48.678;9.280;2023-08-06T09:25:38;16.30;1.00
8709;DHT22;4391;48.678;9.280;2023-08-06T09:28:05;16.60;99.90
8709;DHT22;4391;48.678;9.280;2023-08-06T09:30:33;16.80;99.90
8709;DHT22;4391;48.678;9.280;2023-08-06T09:33:00;16.90;99.90
8709;DHT22;4391;48.678;9.280;2023-08-06T09:35:30;16.90;99.90
8709;DHT22;4391;48.678;9.280;2023-08-06T09:38:05;16.90;99.90
8709;DHT22;4391;48.678;9.280;2023-08-06T09:40:33;17.00;99.90
8709;DHT22;4391;48.678;9.280;2023-08-06T09:43:01;17.20;99.90
8709;DHT22;4391;48.678;9.280;2023-08-06T09:45:30;17.10;99.90
8709;DHT22;4391;48.678;9.280;2023-08-06T09:47:58;17.00;99.90
8709;DHT22;4391;48.678;9.280;2023-08-06T09:50:30;16.70;1.00
8709;DHT22;4391;48.678;9.280;2023-08-06T09:52:58;16.40;1.00
8709;DHT22;4391;48.678;9.280;2023-08-06T09:55:25;15.90;1.00
8709;DHT22;4391;48.678;9.280;2023-08-06T09:57:53;15.60;1.00
8709;DHT22;4391;48.678;9.280;2023-08-06T10:00:20;15.30;22.70
8709;DHT22;4391;48.678;9.280;2023-08-06T10:02:47;15.30;41.60
8709;DHT22;4391;48.678;9.280;2023-08-06T10:05:15;15.40;50.90
8709;DHT22;4391;48.678;9.280;2023-08-06T10:07:44;15.50;1.00
8709;DHT22;4391;48.678;9.280;2023-08-06T10:10:11;15.60;11.90
8709;DHT22;4391;48.678;9.280;2023-08-06T10:12:40;15.60;37.40
8709;DHT22;4391;48.678;9.280;2023-08-06T10:15:12;15.30;44.30
8709;DHT22;4391;48.678;9.280;2023-08-06T10:17:40;15.10;90.90
8709;DHT22;4391;48.678;9.280;2023-08-06T10:20:09;14.90;99.00
8709;DHT22;4391;48.678;9.280;2023-08-06T10:22:35;14.70;94.10
8709;DHT22;4391;48.678;9.280;2023-08-06T10:25:04;14.60;99.90
8709;DHT22;4391;48.678;9.280;2023-08-06T10:27:33;14.60;99.90
8709;DHT22;4391;48.678;9.280;2023-08-06T10:30:26;14.60;99.90
8709;DHT22;4391;48.678;9.280;2023-08-06T10:32:54;14.70;99.90
8709;DHT22;4391;48.678;9.280;2023-08-06T10:35:30;14.70;99.90
8709;DHT22;4391;48.678;9.280;2023-08-06T10:38:04;14.70;99.90
8709;DHT22;4391;48.678;9.280;2023-08-06T10:40:33;14.70;99.90
8709;DHT22;4391;48.678;9.280;2023-08-06T10:43:00;14.70;99.90
8709;DHT22;4391;48.678;9.280;2023-08-06T10:45:27;14.70;99.90
8709;DHT22;4391;48.678;9.280;2023-08-06T10:47:56;14.80;99.90
8709;DHT22;4391;48.678;9.280;2023-08-06T10:50:24;15.00;99.90
8709;DHT22;4391;48.678;9.280;2023-08-06T10:52:51;14.90;99.90
8709;DHT22;4391;48.678;9.280;2023-08-06T10:55:26;15.00;99.90
8709;DHT22;4391;48.678;9.280;2023-08-06T10:57:54;14.80;99.90
8709;DHT22;4391;48.678;9.280;2023-08-06T11:00:22;14.90;99.90
8709;DHT22;4391;48.678;9.280;2023-08-06T11:02:49;14.80;99.90
8709;DHT22;4391;48.678;9.280;2023-08-06T11:05:16;14.90;99.90
8709;DHT22;4391;48.678;9.280;2023-08-06T11:07:43;15.00;99.90
8709;DHT22;4391;48.678;9.280;2023-08-06T11:10:12;15.10;99.90
8709;DHT22;4391;48.678;9.280;2023-08-06T11:12:39;15.20;99.90
8709;DHT22;4391;48.678;9.280;2023-08-06T11:15:08;15.20;93.70
8709;DHT22;4391;48.678;9.280;2023-08-06T11:17:37;15.20;94.00
8709;DHT22;4391;48.678;9.280;2023-08-06T11:20:06;15.10;96.20
8709;DHT22;4391;48.678;9.280;2023-08-06T11:22:33;15.10;95.50
8709;DHT22;4391;48.678;9.280;2023-08-06T11:25:00;15.20;91.70
8709;DHT22;4391;48.678;9.280;2023-08-06T11:27:27;15.20;72.60
8709;DHT22;4391;48.678;9.280;2023-08-06T11:29:55;15.20;74.40
8709;DHT22;4391;48.678;9.280;2023-08-06T11:32:23;15.10;98.80
8709;DHT22;4391;48.678;9.280;2023-08-06T11:34:50;15.20;97.70
8709;DHT22;4391;48.678;9.280;2023-08-06T11:37:20;15.20;97.10
8709;DHT22;4391;48.678;9.280;2023-08-06T11:39:49;15.20;25.40
8709;DHT22;4391;48.678;9.280;2023-08-06T11:42:16;15.20;26.90
8709;DHT22;4391;48.678;9.280;2023-08-06T11:44:43;15.30;11.20
8709;DHT22;4391;48.678;9.280;2023-08-06T11:47:13;15.40;1.00
8709;DHT22;4391;48.678;9.280;2023-08-06T11:49:43;15.50;99.90
8709;DHT22;4391;48.678;9.280;2023-08-06T11:52:15;15.50;99.90
8709;DHT22;4391;48.678;9.280;2023-08-06T11:54:44;15.60;99.90
8709;DHT22;4391;48.678;9.280;2023-08-06T11:57:11;15.70;99.90
8709;DHT22;4391;48.678;9.280;2023-08-06T11:59:39;15.80;95.00
8709;DHT22;4391;48.678;9.280;2023-08-06T12:02:09;15.80;1.00
8709;DHT22;4391;48.678;9.280;2023-08-06T12:05:03;15.70;99.90
8709;DHT22;4391;48.678;9.280;2023-08-06T12:07:32;15.70;1.00
8709;DHT22;4391;48.678;9.280;2023-08-06T12:09:59;15.80;1.00
8709;DHT22;4391;48.678;9.280;2023-08-06T12:12:26;15.80;1.00
8709;DHT22;4391;48.678;9.280;2023-08-06T12:14:54;15.70;1.00
8709;DHT22;4391;48.678;9.280;2023-08-06T12:17:21;15.80;51.90
8709;DHT22;4391;48.678;9.280;2023-08-06T12:19:48;16.00;1.00
8709;DHT22;4391;48.678;9.280;2023-08-06T12:22:16;16.10;99.90
8709;DHT22;4391;48.678;9.280;2023-08-06T12:24:45;16.30;99.90
8709;DHT22;4391;48.678;9.280;2023-08-06T12:27:12;16.50;99.90
8709;DHT22;4391;48.678;9.280;2023-08-06T12:29:41;16.50;1.00
8709;DHT22;4391;48.678;9.280;2023-08-06T12:32:08;16.40;99.90
8709;DHT22;4391;48.678;9.280;2023-08-06T12:34:35;16.20;99.90
8709;DHT22;4391;48.678;9.280;2023-08-06T12:37:02;16.30;1.00
8709;DHT22;4391;48.678;9.280;2023-08-06T12:39:30;16.40;99.90
8709;DHT22;4391;48.678;9.280;2023-08-06T12:41:58;16.50;99.90
8709;DHT22;4391;48.678;9.280;2023-08-06T12:44:25;16.70;1.00
8709;DHT22;4391;48.678;9.280;2023-08-06T12:46:52;16.70;1.00
8709;DHT22;4391;48.678;9.280;2023-08-06T12:49:19;16.60;1.00
8709;DHT22;4391;48.678;9.280;2023-08-06T12:51:47;16.50;15.00
8709;DHT22;4391;48.678;9.280;2023-08-06T12:54:15;16.60;1.00
8709;DHT22;4391;48.678;9.280;2023-08-06T12:56:44;16.50;99.90
8709;DHT22;4391;48.678;9.280;2023-08-06T12:59:11;16.40;99.90
8709;DHT22;4391;48.678;9.280;2023-08-06T13:01:38;16.30;29.40
8709;DHT22;4391;48.678;9.280;2023-08-06T13:04:05;16.10;48.00
8709;DHT22;4391;48.678;9.280;2023-08-06T13:06:32;15.90;99.90
8709;DHT22;4391;48.678;9.280;2023-08-06T13:09:01;16.00;1.00
8709;DHT22;4391;48.678;9.280;2023-08-06T13:11:28;16.00;99.90
8709;DHT22;4391;48.678;9.280;2023-08-06T13:14:01;16.10;1.00
8709;DHT22;4391;48.678;9.280;2023-08-06T13:16:30;16.30;99.90
8709;DHT22;4391;48.678;9.280;2023-08-06T13:18:57;16.40;99.90
8709;DHT22;4391;48.678;9.280;2023-08-06T13:21:23;16.40;99.90
8709;DHT22;4391;48.678;9.280;2023-08-06T13:23:50;16.50;99.90
8709;DHT22;4391;48.678;9.280;2023-08-06T13:26:17;16.60;1.00
8709;DHT22;4391;48.678;9.280;2023-08-06T13:28:44;16.60;1.00
8709;DHT22;4391;48.678;9.280;2023-08-06T13:31:12;16.70;1.00
8709;DHT22;4391;48.678;9.280;2023-08-06T13:33:39;16.80;99.90
8709;DHT22;4391;48.678;9.280;2023-08-06T13:36:06;17.00;99.90
8709;DHT22;4391;48.678;9.280;2023-08-06T13:38:32;16.90;99.90
8709;DHT22;4391;48.678;9.280;2023-08-06T13:40:59;16.90;99.90
8709;DHT22;4391;48.678;9.280;2023-08-06T13:43:26;17.00;99.90
8709;DHT22;4391;48.678;9.280;2023-08-06T13:45:53;17.00;74.70
8709;DHT22;4391;48.678;9.280;2023-08-06T13:48:21;16.90;99.10
8709;DHT22;4391;48.678;9.280;2023-08-06T13:50:48;16.80;1.00
8709;DHT22;4391;48.678;9.280;2023-08-06T13:53:15;16.90;99.90
8709;DHT22;4391;48.678;9.280;2023-08-06T13:55:42;17.20;92.20
8709;DHT22;4391;48.678;9.280;2023-08-06T13:58:08;17.50;1.00
8709;DHT22;4391;48.678;9.280;2023-08-06T14:00:36;17.50;1.00
8709;DHT22;4391;48.678;9.280;2023-08-06T14:03:03;17.50;1.00
8709;DHT22;4391;48.678;9.280;2023-08-06T14:05:32;17.50;1.00
8709;DHT22;4391;48.678;9.280;2023-08-06T14:07:58;17.60;1.00
8709;DHT22;4391;48.678;9.280;2023-08-06T14:10:25;17.40;1.00
8709;DHT22;4391;48.678;9.280;2023-08-06T14:12:52;17.40;1.00
8709;DHT22;4391;48.678;9.280;2023-08-06T14:15:19;17.40;1.00
8709;DHT22;4391;48.678;9.280;2023-08-06T14:17:46;17.20;1.00
8709;DHT22;4391;48.678;9.280;2023-08-06T14:20:13;17.20;1.00
8709;DHT22;4391;48.678;9.280;2023-08-06T14:22:41;17.20;1.00
8709;DHT22;4391;48.678;9.280;2023-08-06T14:25:08;17.10;1.00
8709;DHT22;4391;48.678;9.280;2023-08-06T14:27:35;17.10;1.00
8709;DHT22;4391;48.678;9.280;2023-08-06T14:30:02;17.50;1.00
8709;DHT22;4391;48.678;9.280;2023-08-06T14:32:29;17.50;1.00
8709;DHT22;4391;48.678;9.280;2023-08-06T14:34:56;17.60;1.00
8709;DHT22;4391;48.678;9.280;2023-08-06T14:37:24;17.60;1.00
8709;DHT22;4391;48.678;9.280;2023-08-06T14:39:53;17.30;1.00
8709;DHT22;4391;48.678;9.280;2023-08-06T14:42:19;17.10;1.00
8709;DHT22;4391;48.678;9.280;2023-08-06T14:44:46;17.00;99.90
8709;DHT22;4391;48.678;9.280;2023-08-06T14:47:13;16.80;99.90
8709;DHT22;4391;48.678;9.280;2023-08-06T14:49:40;16.50;99.90
8709;DHT22;4391;48.678;9.280;2023-08-06T14:52:07;16.00;99.90
8709;DHT22;4391;48.678;9.280;2023-08-06T14:54:34;15.50;99.90
8709;DHT22;4391;48.678;9.280;2023-08-06T14:57:02;15.30;1.00
8709;DHT22;4391;48.678;9.280;2023-08-06T14:59:29;15.20;1.00
8709;DHT22;4391;48.678;9.280;2023-08-06T15:01:56;15.10;1.00
8709;DHT22;4391;48.678;9.280;2023-08-06T15:04:23;15.00;1.00
8709;DHT22;4391;48.678;9.280;2023-08-06T15:06:50;15.20;1.00
8709;DHT22;4391;48.678;9.280;2023-08-06T15:09:16;15.60;99.90
8709;DHT22;4391;48.678;9.280;2023-08-06T15:11:43;15.90;99.90
8709;DHT22;4391;48.678;9.280;2023-08-06T15:14:12;15.90;99.90
8709;DHT22;4391;48.678;9.280;2023-08-06T15:16:40;15.90;1.00
8709;DHT22;4391;48.678;9.280;2023-08-06T15:19:09;15.60;99.90
8709;DHT22;4391;48.678;9.280;2023-08-06T15:21:36;15.50;99.90
8709;DHT22;4391;48.678;9.280;2023-08-06T15:24:03;15.50;1.00
8709;DHT22;4391;48.678;9.280;2023-08-06T15:26:30;15.70;99.90
8709;DHT22;4391;48.678;9.280;2023-08-06T15:28:57;15.90;1.00
8709;DHT22;4391;48.678;9.280;2023-08-06T15:31:35;16.20;83.10
8709;DHT22;4391;48.678;9.280;2023-08-06T15:34:03;16.50;1.00
8709;DHT22;4391;48.678;9.280;2023-08-06T15:36:29;16.70;1.00
8709;DHT22;4391;48.678;9.280;2023-08-06T15:38:56;16.90;99.90
8709;DHT22;4391;48.678;9.280;2023-08-06T15:41:23;16.80;99.90
8709;DHT22;4391;48.678;9.280;2023-08-06T15:43:50;16.80;99.90
8709;DHT22;4391;48.678;9.280;2023-08-06T15:46:17;17.00;99.90
8709;DHT22;4391;48.678;9.280;2023-08-06T15:48:45;16.90;99.90
8709;DHT22;4391;48.678;9.280;2023-08-06T15:51:12;16.80;99.90
8709;DHT22;4391;48.678;9.280;2023-08-06T15:53:39;16.70;99.90
8709;DHT22;4391;48.678;9.280;2023-08-06T15:56:06;16.90;99.90
8709;DHT22;4391;48.678;9.280;2023-08-06T15:58:33;16.80;1.00
8709;DHT22;4391;48.678;9.280;2023-08-06T16:01:00;16.90;55.00
8709;DHT22;4391;48.678;9.280;2023-08-06T16:03:28;16.90;1.00
8709;DHT22;4391;48.678;9.280;2023-08-06T16:05:56;17.00;1.00
8709;DHT22;4391;48.678;9.280;2023-08-06T16:08:23;17.20;1.00